Time;durP1;ratioP1;P1;durP2;ratioP2;P2;SDS_P1;SDS_P2;PMS_P1;PMS_P2;Temp;Humidity;BMP_temperature;BMP_pressure;BME280_temperature;BME280_humidity;BME280_pressure;Samples;Min_cycle;Max_cycle;Signal;HPM_P1;HPM_P2
2022/08/05 00:01:20;;;;;;;2.33;2.13;;;25.10;71.60;;;;;;5101917;28;20227;-71
2022/08/05 00:03:48;;;;;;;2.55;2.35;;;25.10;71.60;;;;;;5095857;28;20180;-71
2022/08/05 00:06:15;;;;;;;2.70;2.40;;;25.10;71.60;;;;;;5101272;28;20199;-71
2022/08/05 00:08:42;;;;;;;2.55;2.38;;;25.00;71.50;;;;;;5114364;28;20203;-71
2022/08/05 00:11:12;;;;;;;2.88;2.67;;;25.10;71.70;;;;;;5116080;28;20185;-72
2022/08/05 00:13:41;;;;;;;2.83;2.63;;;25.10;71.70;;;;;;5115956;28;20655;-72
2022/08/05 00:16:13;;;;;;;2.60;2.40;;;25.10;71.80;;;;;;5115216;28;20176;-71
2022/08/05 00:18:47;;;;;;;2.88;2.60;;;25.10;71.80;;;;;;5114877;28;20215;-72
2022/08/05 00:21:15;;;;;;;2.78;2.58;;;25.10;71.80;;;;;;5115093;28;20198;-72
2022/08/05 00:23:44;;;;;;;2.40;2.30;;;25.10;71.80;;;;;;5115968;28;20180;-72
2022/08/05 00:26:10;;;;;;;2.55;2.35;;;25.00;71.70;;;;;;5114343;28;20176;-71
2022/08/05 00:28:36;;;;;;;2.22;2.08;;;25.10;71.80;;;;;;5115664;28;20268;-72
2022/08/05 00:31:04;;;;;;;2.97;2.67;;;25.10;71.80;;;;;;5116085;28;20180;-72
2022/08/05 00:33:31;;;;;;;2.47;2.28;;;25.10;71.90;;;;;;5115872;28;20169;-71
2022/08/05 00:35:57;;;;;;;2.50;2.40;;;25.10;72.00;;;;;;5113265;28;20208;-72
2022/08/05 00:38:22;;;;;;;3.03;2.42;;;25.00;71.90;;;;;;5097396;28;20276;-72
2022/08/05 00:40:52;;;;;;;2.65;2.45;;;25.00;71.90;;;;;;5114357;28;20181;-72
2022/08/05 00:43:19;;;;;;;2.58;2.38;;;25.00;71.90;;;;;;5114284;28;20184;-72
2022/08/05 00:45:46;;;;;;;2.67;2.47;;;25.00;71.90;;;;;;5114847;28;20203;-71
2022/08/05 00:48:19;;;;;;;2.53;2.42;;;25.00;71.90;;;;;;5115239;28;20242;-72
2022/08/05 00:50:49;;;;;;;2.70;2.50;;;25.00;71.90;;;;;;5115649;28;20169;-71
2022/08/05 00:53:19;;;;;;;2.65;2.40;;;25.10;72.00;;;;;;5097085;28;20686;-71
2022/08/05 00:55:44;;;;;;;2.53;2.40;;;25.00;71.90;;;;;;5096416;28;20180;-72
2022/08/05 00:58:13;;;;;;;2.72;2.53;;;25.00;72.00;;;;;;5097102;28;20243;-72
2022/08/05 01:00:40;;;;;;;2.78;2.50;;;25.00;71.90;;;;;;5097305;28;20192;-72
2022/08/05 01:03:06;;;;;;;2.78;2.58;;;25.00;71.90;;;;;;5114134;28;20173;-71
2022/08/05 01:05:31;;;;;;;2.70;2.50;;;25.00;71.90;;;;;;5114521;28;20187;-71
2022/08/05 01:07:58;;;;;;;2.72;2.53;;;25.00;71.90;;;;;;5096558;28;20592;-72
2022/08/05 01:10:36;;;;;;;2.70;2.50;;;25.00;71.90;;;;;;5096883;28;20225;-72
2022/08/05 01:13:15;;;;;;;2.92;2.42;;;25.00;71.90;;;;;;5096847;28;20224;-71
2022/08/05 01:15:49;;;;;;;2.50;2.30;;;25.00;72.00;;;;;;5113123;28;20184;-71
2022/08/05 01:18:22;;;;;;;2.25;2.05;;;25.00;72.00;;;;;;5114770;28;20199;-71
2022/08/05 01:21:22;;;;;;;2.92;2.72;;;25.00;72.00;;;;;;5080002;28;20188;-72
2022/08/05 01:24:18;;;;;;;2.70;2.50;;;25.00;72.00;;;;;;5114297;28;20237;-71
2022/08/05 01:27:04;;;;;;;3.10;2.80;;;25.00;72.00;;;;;;5112756;28;20822;-71
2022/08/05 01:29:39;;;;;;;3.10;2.80;;;25.00;72.00;;;;;;5096489;28;20192;-71
2022/08/05 01:32:10;;;;;;;2.65;2.45;;;25.00;72.10;;;;;;5096381;28;20176;-72
2022/08/05 01:34:46;;;;;;;2.05;1.95;;;25.00;72.10;;;;;;5113182;28;20176;-71
2022/08/05 01:37:25;;;;;;;2.70;2.50;;;25.00;72.00;;;;;;5079265;28;20291;-71
2022/08/05 01:39:53;;;;;;;3.00;2.40;;;25.00;72.10;;;;;;5096174;28;20172;-71
2022/08/05 01:42:22;;;;;;;2.50;2.30;;;25.00;72.10;;;;;;5096182;28;20686;-71
2022/08/05 01:44:48;;;;;;;2.80;2.60;;;25.00;72.10;;;;;;5079025;28;20678;-71
2022/08/05 01:47:19;;;;;;;2.33;2.22;;;25.00;72.20;;;;;;5113145;28;20204;-71
2022/08/05 01:49:49;;;;;;;2.70;2.50;;;25.00;72.20;;;;;;5095582;28;20204;-71
2022/08/05 01:52:18;;;;;;;2.70;2.50;;;25.00;72.10;;;;;;5079098;28;20172;-72
2022/08/05 01:54:52;;;;;;;2.65;2.45;;;25.00;72.10;;;;;;5096085;28;20283;-71
2022/08/05 01:57:28;;;;;;;4.75;2.78;;;25.00;72.10;;;;;;5078825;28;20206;-71
2022/08/05 02:00:00;;;;;;;2.50;2.30;;;25.00;72.00;;;;;;5095975;28;20170;-71
2022/08/05 02:02:30;;;;;;;2.63;2.42;;;25.00;72.10;;;;;;5095880;28;20172;-72
2022/08/05 02:05:02;;;;;;;2.67;2.50;;;25.00;72.10;;;;;;5113432;28;20177;-71
2022/08/05 02:07:31;;;;;;;2.75;2.55;;;25.00;72.10;;;;;;5095519;28;20235;-72
2022/08/05 02:09:58;;;;;;;3.15;2.85;;;24.90;72.00;;;;;;5113787;28;20196;-72
2022/08/05 02:12:35;;;;;;;2.60;2.40;;;25.00;72.10;;;;;;5078723;28;20184;-72
2022/08/05 02:15:24;;;;;;;2.47;2.38;;;24.90;72.00;;;;;;5094949;28;20198;-71
2022/08/05 02:17:59;;;;;;;2.75;2.55;;;25.00;72.20;;;;;;5092182;28;20197;-71
2022/08/05 02:20:31;;;;;;;2.38;2.28;;;24.90;72.10;;;;;;5075207;28;20637;-71
2022/08/05 02:23:02;;;;;;;2.50;2.40;;;24.90;72.00;;;;;;5093541;28;20219;-72
2022/08/05 02:25:38;;;;;;;2.55;2.38;;;24.90;72.00;;;;;;5074441;28;20188;-71
2022/08/05 02:28:07;;;;;;;2.88;2.53;;;24.90;72.00;;;;;;5075218;28;20208;-72
2022/08/05 02:30:58;;;;;;;2.45;2.28;;;25.00;72.00;;;;;;5075246;28;20238;-72
2022/08/05 02:33:25;;;;;;;3.45;2.75;;;25.00;72.10;;;;;;5075157;28;20184;-71
2022/08/05 02:35:58;;;;;;;2.38;2.20;;;24.90;71.90;;;;;;5074316;28;20177;-71
2022/08/05 02:38:28;;;;;;;2.47;2.28;;;24.90;71.90;;;;;;5087571;28;20644;-71
2022/08/05 02:40:57;;;;;;;3.38;2.80;;;24.90;71.80;;;;;;5086525;28;20176;-71
2022/08/05 02:43:25;;;;;;;2.60;2.40;;;25.00;71.90;;;;;;5112028;28;20194;-72
2022/08/05 02:45:52;;;;;;;2.63;2.42;;;25.00;71.80;;;;;;5111229;28;20665;-71
2022/08/05 02:48:21;;;;;;;2.53;2.33;;;24.90;71.70;;;;;;5088903;28;20215;-72
2022/08/05 02:50:50;;;;;;;2.80;2.60;;;24.90;71.60;;;;;;5113030;28;20187;-72
2022/08/05 02:53:19;;;;;;;2.58;2.38;;;24.90;71.60;;;;;;5112978;28;20175;-72
2022/08/05 02:55:51;;;;;;;2.63;2.45;;;25.00;71.70;;;;;;5110977;28;20237;-71
2022/08/05 02:58:20;;;;;;;2.50;2.30;;;24.90;71.50;;;;;;5094807;28;20286;-72
2022/08/05 03:00:47;;;;;;;2.40;2.20;;;24.90;71.60;;;;;;5111795;28;20279;-72
2022/08/05 03:03:19;;;;;;;2.90;2.67;;;24.90;71.60;;;;;;5111740;28;20184;-71
2022/08/05 03:05:50;;;;;;;2.78;2.58;;;24.90;71.70;;;;;;5077285;28;20188;-71
2022/08/05 03:08:17;;;;;;;2.80;2.60;;;24.90;71.70;;;;;;5112905;28;20212;-71
2022/08/05 03:10:44;;;;;;;3.00;2.30;;;24.90;71.70;;;;;;5094752;28;20643;-72
2022/08/05 03:13:13;;;;;;;2.70;2.50;;;24.90;71.70;;;;;;5112799;28;20647;-71
2022/08/05 03:15:47;;;;;;;2.75;2.30;;;24.90;71.80;;;;;;5112218;28;20184;-71
2022/08/05 03:18:13;;;;;;;2.65;2.45;;;24.90;71.70;;;;;;5111956;28;20286;-71
2022/08/05 03:20:39;;;;;;;3.17;2.35;;;24.90;71.70;;;;;;5094546;28;20187;-71
2022/08/05 03:23:09;;;;;;;2.90;2.70;;;24.90;71.70;;;;;;5094743;28;20180;-72
2022/08/05 03:25:38;;;;;;;4.13;3.40;;;24.90;71.70;;;;;;5112157;28;20183;-71
2022/08/05 03:28:08;;;;;;;2.60;2.50;;;24.90;71.80;;;;;;5077426;28;20248;-71
2022/08/05 03:30:34;;;;;;;2.60;2.40;;;24.90;71.80;;;;;;5077882;28;20570;-71
2022/08/05 03:33:02;;;;;;;2.60;2.40;;;24.90;71.70;;;;;;5112596;28;20172;-72
2022/08/05 03:35:30;;;;;;;2.75;2.55;;;24.90;71.80;;;;;;5111062;28;20204;-71
2022/08/05 03:37:58;;;;;;;2.75;2.55;;;24.90;71.80;;;;;;5077813;28;20207;-71
2022/08/05 03:40:24;;;;;;;2.80;2.60;;;24.90;71.80;;;;;;5094429;28;20293;-72
2022/08/05 03:42:50;;;;;;;2.40;2.20;;;24.90;71.80;;;;;;5111422;28;20259;-72
2022/08/05 03:45:16;;;;;;;2.85;2.65;;;24.90;71.70;;;;;;5076940;28;20259;-71
2022/08/05 03:47:41;;;;;;;2.75;2.55;;;24.90;71.80;;;;;;5094597;28;20210;-71
2022/08/05 03:50:07;;;;;;;2.50;2.30;;;24.90;71.80;;;;;;5112083;28;20191;-71
2022/08/05 03:52:47;;;;;;;2.50;2.35;;;24.90;71.80;;;;;;5094462;28;20176;-71
2022/08/05 03:55:23;;;;;;;2.70;2.50;;;24.90;71.80;;;;;;5093948;28;20176;-71
2022/08/05 03:57:51;;;;;;;2.50;2.35;;;24.80;71.70;;;;;;5077374;28;20214;-71
2022/08/05 04:00:24;;;;;;;2.40;2.30;;;24.90;71.80;;;;;;5094319;28;20255;-72
2022/08/05 04:02:55;;;;;;;2.90;2.58;;;24.90;71.80;;;;;;5094214;28;20202;-72
2022/08/05 04:05:22;;;;;;;2.60;2.40;;;24.80;71.70;;;;;;5111888;28;20197;-71
2022/08/05 04:07:49;;;;;;;2.67;2.47;;;24.80;71.70;;;;;;5077263;28;20321;-71
2022/08/05 04:10:16;;;;;;;2.75;2.28;;;24.90;71.90;;;;;;5112218;28;20251;-72
2022/08/05 04:12:43;;;;;;;2.08;1.98;;;24.80;71.70;;;;;;5097587;28;20178;-71
2022/08/05 04:15:10;;;;;;;2.80;2.60;;;24.90;71.90;;;;;;5110622;28;20188;-71
2022/08/05 04:17:36;;;;;;;2.25;2.15;;;24.80;71.70;;;;;;5095538;28;20285;-71
2022/08/05 04:20:03;;;;;;;2.28;2.17;;;24.80;71.70;;;;;;5095714;28;20209;-71
2022/08/05 04:22:29;;;;;;;3.00;2.80;;;24.80;71.70;;;;;;5076503;28;20187;-72
2022/08/05 04:24:55;;;;;;;2.28;2.10;;;24.80;71.80;;;;;;5077464;28;20181;-71
2022/08/05 04:27:20;;;;;;;2.25;2.15;;;24.90;71.90;;;;;;5076687;28;20201;-71
2022/08/05 04:29:46;;;;;;;2.60;2.40;;;24.90;71.90;;;;;;5077125;28;20221;-71
2022/08/05 04:32:12;;;;;;;2.38;2.28;;;24.80;71.80;;;;;;5095325;28;20173;-72
2022/08/05 04:34:38;;;;;;;2.90;2.70;;;24.90;71.90;;;;;;5077150;28;20191;-72
2022/08/05 04:37:04;;;;;;;2.60;2.40;;;24.80;71.90;;;;;;5076541;28;20231;-72
2022/08/05 04:39:30;;;;;;;2.45;2.25;;;24.80;71.90;;;;;;5095156;28;20267;-72
2022/08/05 04:41:56;;;;;;;2.40;2.30;;;24.80;71.90;;;;;;5077418;28;20185;-72
2022/08/05 04:44:22;;;;;;;2.50;2.30;;;24.80;72.00;;;;;;5088308;28;20639;-72
2022/08/05 04:46:48;;;;;;;2.33;2.15;;;24.80;71.90;;;;;;5092129;28;20205;-71
2022/08/05 04:49:13;;;;;;;2.75;2.40;;;24.80;71.90;;;;;;5060542;28;20219;-72
2022/08/05 04:51:39;;;;;;;2.70;2.50;;;24.80;72.00;;;;;;5095105;28;20177;-71
2022/08/05 04:54:05;;;;;;;2.70;2.50;;;24.80;72.00;;;;;;5094818;28;20226;-71
2022/08/05 04:56:31;;;;;;;2.42;2.22;;;24.80;72.00;;;;;;5059582;28;20184;-70
2022/08/05 04:58:56;;;;;;;2.45;2.25;;;24.80;72.00;;;;;;5076898;28;20185;-71
2022/08/05 05:01:22;;;;;;;2.67;2.47;;;24.80;72.10;;;;;;5076935;28;20276;-71
2022/08/05 05:03:48;;;;;;;2.60;2.40;;;24.80;72.00;;;;;;5076740;28;20176;-71
2022/08/05 05:06:14;;;;;;;2.45;2.25;;;24.80;72.00;;;;;;5094133;28;20184;-71
2022/08/05 05:08:40;;;;;;;2.67;2.47;;;24.80;72.10;;;;;;5059781;28;20227;-71
2022/08/05 05:11:06;;;;;;;2.40;2.13;;;24.80;72.10;;;;;;5076580;28;20200;-71
2022/08/05 05:13:32;;;;;;;2.72;2.53;;;24.80;72.10;;;;;;5094508;28;20288;-71
2022/08/05 05:15:58;;;;;;;2.58;2.38;;;24.90;72.20;;;;;;5076192;28;20271;-71
2022/08/05 05:18:24;;;;;;;2.53;2.33;;;24.80;72.10;;;;;;5076718;28;20213;-71
2022/08/05 05:20:49;;;;;;;2.55;2.35;;;24.80;72.10;;;;;;5076355;28;20192;-71
2022/08/05 05:23:16;;;;;;;2.50;2.30;;;24.80;72.10;;;;;;5075912;28;20185;-71
2022/08/05 05:25:43;;;;;;;2.65;2.45;;;24.80;72.10;;;;;;5075874;28;20253;-71
2022/08/05 05:28:11;;;;;;;2.33;2.15;;;24.80;72.10;;;;;;5059557;28;20227;-71
2022/08/05 05:30:38;;;;;;;2.50;2.30;;;24.80;72.10;;;;;;5076440;28;20185;-72
2022/08/05 05:33:06;;;;;;;2.53;2.40;;;24.80;72.10;;;;;;5076254;28;20181;-71
2022/08/05 05:35:33;;;;;;;2.50;2.30;;;24.80;72.10;;;;;;5093547;28;20211;-71
2022/08/05 05:38:03;;;;;;;3.22;2.63;;;24.80;72.10;;;;;;5076152;28;20248;-71
2022/08/05 05:40:30;;;;;;;2.45;2.25;;;24.80;72.20;;;;;;5093931;28;20568;-71
2022/08/05 05:42:56;;;;;;;4.18;2.45;;;24.80;72.40;;;;;;5075641;28;20169;-71
2022/08/05 05:45:23;;;;;;;2.83;2.58;;;24.80;72.40;;;;;;5075442;28;20669;-71
2022/08/05 05:47:49;;;;;;;2.80;2.60;;;24.80;72.40;;;;;;5075485;28;20216;-71
2022/08/05 05:50:17;;;;;;;2.63;2.40;;;24.80;72.40;;;;;;5075691;28;20188;-71
2022/08/05 05:52:45;;;;;;;2.17;2.08;;;24.80;72.40;;;;;;5058826;28;20185;-71
2022/08/05 05:55:14;;;;;;;2.50;2.30;;;24.80;72.40;;;;;;5075385;28;20177;-70
2022/08/05 05:57:43;;;;;;;3.08;2.88;;;24.80;72.50;;;;;;5093071;28;20676;-71
2022/08/05 06:00:18;;;;;;;2.60;2.40;;;24.80;72.40;;;;;;5093594;28;20181;-71
2022/08/05 06:02:46;;;;;;;2.65;2.45;;;24.80;72.40;;;;;;5059092;28;20180;-71
2022/08/05 06:05:14;;;;;;;3.65;2.40;;;24.80;72.40;;;;;;5083393;27;20197;-69
2022/08/05 06:07:41;;;;;;;2.67;2.47;;;24.80;72.40;;;;;;5124227;27;20239;-71
2022/08/05 06:10:09;;;;;;;2.60;2.40;;;24.80;72.40;;;;;;5090435;28;20276;-70
2022/08/05 06:12:36;;;;;;;2.70;2.50;;;24.80;72.40;;;;;;5113761;28;20175;-71
2022/08/05 06:15:05;;;;;;;3.00;2.67;;;24.90;72.50;;;;;;5088979;28;20192;-72
2022/08/05 06:17:31;;;;;;;2.72;2.53;;;24.80;72.40;;;;;;5088926;28;20278;-71
2022/08/05 06:19:58;;;;;;;2.78;2.58;;;24.80;72.40;;;;;;5090424;28;20233;-71
2022/08/05 06:22:27;;;;;;;2.75;2.55;;;24.80;72.50;;;;;;5112929;28;20270;-71
2022/08/05 06:24:53;;;;;;;2.47;2.28;;;24.80;72.40;;;;;;5083734;28;20180;-71
2022/08/05 06:27:19;;;;;;;2.65;2.42;;;24.80;72.40;;;;;;5058629;28;20317;-71
2022/08/05 06:29:44;;;;;;;2.55;2.33;;;24.80;72.50;;;;;;5075067;28;20200;-71
2022/08/05 06:32:11;;;;;;;2.70;2.53;;;24.80;72.50;;;;;;5096268;28;20188;-71
2022/08/05 06:34:37;;;;;;;3.03;2.78;;;24.80;72.40;;;;;;5072687;28;20185;-71
2022/08/05 06:37:03;;;;;;;2.70;2.50;;;24.80;73.30;;;;;;5062770;28;20254;-71
2022/08/05 06:39:29;;;;;;;3.40;2.42;;;24.80;72.40;;;;;;5104717;28;20184;-71
2022/08/05 06:42:02;;;;;;;2.90;2.70;;;24.80;72.50;;;;;;5112435;28;20215;-71
2022/08/05 06:44:30;;;;;;;2.70;2.50;;;24.80;72.40;;;;;;5094777;28;20554;-70
2022/08/05 06:46:56;;;;;;;3.55;2.60;;;24.80;72.40;;;;;;5109811;28;20213;-70
2022/08/05 06:49:23;;;;;;;2.95;2.70;;;24.80;72.40;;;;;;5094063;28;20204;-71
2022/08/05 06:51:50;;;;;;;2.78;2.40;;;24.80;72.40;;;;;;5076828;28;20180;-70
2022/08/05 06:54:15;;;;;;;3.03;2.75;;;24.80;72.40;;;;;;5094368;28;20184;-71
2022/08/05 06:56:41;;;;;;;3.35;2.80;;;24.80;72.50;;;;;;5093544;28;20207;-70
2022/08/05 06:59:08;;;;;;;2.65;2.45;;;24.80;72.60;;;;;;5077374;28;20180;-72
2022/08/05 07:01:33;;;;;;;2.97;2.67;;;24.90;72.60;;;;;;5094497;28;20233;-70
2022/08/05 07:04:00;;;;;;;2.97;2.67;;;24.90;72.60;;;;;;5094268;28;20216;-70
2022/08/05 07:06:26;;;;;;;3.08;2.78;;;24.80;72.60;;;;;;5111782;28;20186;-70
2022/08/05 07:08:52;;;;;;;2.80;2.60;;;24.80;72.70;;;;;;5077218;28;20204;-71
2022/08/05 07:11:19;;;;;;;3.10;2.80;;;24.80;72.60;;;;;;5094240;28;20666;-72
2022/08/05 07:19:19;;;;;;;3.40;2.80;;;24.80;72.70;;;;;;5094092;28;20179;-71
2022/08/05 07:21:47;;;;;;;3.92;2.90;;;24.90;72.80;;;;;;5111814;28;20184;-71
2022/08/05 07:24:14;;;;;;;3.17;2.88;;;24.90;72.70;;;;;;5112270;28;20651;-71
2022/08/05 07:26:41;;;;;;;3.55;2.83;;;24.90;72.80;;;;;;5111879;28;20286;-72
2022/08/05 07:29:08;;;;;;;3.20;2.95;;;24.80;72.70;;;;;;5112182;28;20212;-71
2022/08/05 07:31:34;;;;;;;2.80;2.60;;;24.90;72.80;;;;;;5111249;28;20176;-72
2022/08/05 07:34:00;;;;;;;2.67;2.47;;;24.80;72.80;;;;;;5093772;28;20179;-72
2022/08/05 07:36:26;;;;;;;3.92;2.70;;;24.90;72.90;;;;;;5093179;28;20179;-71
2022/08/05 07:38:53;;;;;;;3.25;3.05;;;24.80;72.80;;;;;;5077139;28;20192;-71
2022/08/05 07:41:23;;;;;;;3.05;2.75;;;24.90;72.90;;;;;;5094582;28;20648;-72
2022/08/05 07:43:49;;;;;;;2.90;2.70;;;24.80;72.80;;;;;;5094469;28;20180;-72
2022/08/05 07:46:15;;;;;;;3.35;2.90;;;24.80;72.80;;;;;;5113370;28;20180;-72
2022/08/05 07:48:41;;;;;;;2.95;2.67;;;24.80;72.80;;;;;;5098184;28;20603;-72
2022/08/05 07:51:08;;;;;;;2.63;2.42;;;24.80;72.90;;;;;;5116553;28;20180;-72
2022/08/05 07:53:35;;;;;;;2.63;2.38;;;24.80;72.80;;;;;;5098185;28;20579;-71
2022/08/05 07:56:05;;;;;;;3.72;2.67;;;24.80;72.70;;;;;;5115912;28;20183;-72
2022/08/05 07:58:30;;;;;;;2.70;2.50;;;24.80;72.70;;;;;;5081274;28;20291;-71
2022/08/05 08:00:56;;;;;;;2.97;2.78;;;24.90;72.80;;;;;;5081185;28;20341;-71
2022/08/05 08:03:23;;;;;;;3.60;2.60;;;24.90;72.70;;;;;;5098035;28;20176;-71
2022/08/05 08:05:51;;;;;;;4.03;2.63;;;25.00;73.50;;;;;;5097458;28;20176;-71
2022/08/05 08:08:17;;;;;;;3.00;2.70;;;24.90;73.10;;;;;;5098279;28;20211;-72
2022/08/05 08:10:44;;;;;;;4.13;2.63;;;24.90;73.10;;;;;;5097961;28;20180;-71
2022/08/05 08:13:10;;;;;;;3.45;2.65;;;24.90;73.10;;;;;;5098005;28;20172;-72
2022/08/05 08:15:36;;;;;;;3.28;2.97;;;24.90;73.10;;;;;;5115618;28;20571;-71
2022/08/05 08:18:03;;;;;;;3.05;2.85;;;24.90;73.10;;;;;;5097646;28;20204;-71
2022/08/05 08:20:28;;;;;;;3.50;2.90;;;24.90;73.10;;;;;;5097838;28;20176;-71
2022/08/05 08:23:01;;;;;;;3.28;2.78;;;24.90;73.00;;;;;;5080585;28;20184;-71
2022/08/05 08:25:27;;;;;;;2.88;2.53;;;24.90;73.00;;;;;;5080992;28;20172;-72
2022/08/05 08:27:54;;;;;;;3.38;2.75;;;24.90;72.70;;;;;;5097398;28;20200;-71
2022/08/05 08:30:20;;;;;;;3.15;2.65;;;24.90;73.20;;;;;;5097814;28;20172;-71
2022/08/05 08:32:46;;;;;;;2.85;2.55;;;24.90;73.30;;;;;;5097902;28;20222;-71
2022/08/05 08:35:12;;;;;;;2.53;2.33;;;24.90;73.70;;;;;;5097433;28;20179;-71
2022/08/05 08:37:38;;;;;;;2.70;2.50;;;24.90;73.10;;;;;;5114381;28;20207;-72
2022/08/05 08:40:04;;;;;;;3.15;2.85;;;24.90;73.10;;;;;;5097414;28;20184;-72
2022/08/05 08:42:32;;;;;;;2.70;2.50;;;24.90;73.10;;;;;;5097282;28;20184;-72
2022/08/05 08:44:59;;;;;;;3.67;2.45;;;24.90;73.10;;;;;;5097543;28;20245;-72
2022/08/05 08:47:27;;;;;;;2.90;2.42;;;24.90;73.10;;;;;;5079698;28;20196;-72
2022/08/05 08:49:56;;;;;;;2.55;2.35;;;24.90;73.00;;;;;;5097205;28;20204;-72
2022/08/05 08:52:27;;;;;;;3.00;2.55;;;24.90;73.00;;;;;;5115502;28;20606;-72
2022/08/05 08:54:54;;;;;;;3.13;2.83;;;24.90;72.90;;;;;;5097202;28;20643;-72
2022/08/05 08:57:21;;;;;;;3.15;2.50;;;24.90;72.80;;;;;;5078841;28;20238;-71
2022/08/05 08:59:48;;;;;;;3.90;2.78;;;24.90;72.80;;;;;;5114079;28;20605;-72
2022/08/05 09:02:17;;;;;;;2.95;2.75;;;24.90;72.80;;;;;;5097021;28;20228;-72
2022/08/05 09:04:45;;;;;;;2.45;2.15;;;25.00;72.80;;;;;;5115143;28;20176;-72
2022/08/05 09:07:11;;;;;;;3.33;2.72;;;25.00;72.70;;;;;;5114255;28;20713;-72
2022/08/05 09:09:38;;;;;;;2.72;2.53;;;24.90;73.10;;;;;;5114986;28;20208;-72
2022/08/05 09:12:08;;;;;;;2.90;2.70;;;25.00;73.00;;;;;;5115389;28;20187;-71
2022/08/05 09:14:35;;;;;;;3.00;2.70;;;24.90;72.70;;;;;;5115056;28;20644;-72
2022/08/05 09:17:05;;;;;;;3.55;2.75;;;24.90;72.70;;;;;;5112985;28;20231;-72
2022/08/05 09:19:32;;;;;;;2.60;2.40;;;25.00;74.00;;;;;;5096565;28;20282;-72
2022/08/05 09:21:58;;;;;;;4.30;2.60;;;25.00;73.60;;;;;;5096486;28;20211;-71
2022/08/05 09:24:24;;;;;;;3.47;2.58;;;25.00;73.60;;;;;;5110929;28;20392;-72
2022/08/05 09:26:55;;;;;;;2.97;2.50;;;25.00;73.60;;;;;;5095639;28;20204;-72
2022/08/05 09:29:44;;;;;;;3.58;2.65;;;25.00;73.70;;;;;;5113446;28;20234;-72
2022/08/05 09:32:10;;;;;;;3.25;2.67;;;25.00;73.70;;;;;;5114546;28;20179;-72
2022/08/05 09:34:52;;;;;;;2.97;2.78;;;25.00;73.80;;;;;;5096381;28;20251;-72
2022/08/05 09:37:21;;;;;;;3.00;2.67;;;25.00;73.70;;;;;;5095900;28;20203;-71
2022/08/05 09:39:47;;;;;;;2.40;2.20;;;25.00;73.90;;;;;;5096586;28;20231;-71
2022/08/05 09:42:17;;;;;;;3.35;2.60;;;25.00;73.70;;;;;;5113322;28;20211;-71
2022/08/05 09:44:49;;;;;;;2.83;2.50;;;25.00;73.70;;;;;;5079392;28;20184;-72
2022/08/05 09:47:24;;;;;;;3.83;2.72;;;25.00;73.60;;;;;;5085842;28;20220;-71
2022/08/05 09:49:56;;;;;;;3.97;2.92;;;25.00;73.50;;;;;;5072472;28;20220;-71
2022/08/05 09:52:27;;;;;;;3.92;2.60;;;25.00;73.90;;;;;;5075717;28;20185;-72
2022/08/05 09:54:57;;;;;;;2.50;2.30;;;25.00;73.50;;;;;;5093890;28;20702;-72
2022/08/05 09:57:41;;;;;;;2.90;2.70;;;25.00;73.30;;;;;;5075102;28;20287;-71
2022/08/05 10:00:11;;;;;;;2.67;2.47;;;25.00;73.40;;;;;;5075391;28;20184;-71
2022/08/05 10:02:48;;;;;;;3.30;2.72;;;25.00;73.30;;;;;;5093588;28;20180;-71
2022/08/05 10:05:17;;;;;;;2.30;2.20;;;25.10;73.30;;;;;;5075489;28;20176;-72
2022/08/05 10:08:06;;;;;;;2.72;2.15;;;25.00;73.30;;;;;;5074726;28;20711;-71
2022/08/05 10:10:46;;;;;;;5.22;2.50;;;25.00;73.40;;;;;;5092946;28;20629;-71
2022/08/05 10:13:37;;;;;;;3.03;2.67;;;25.00;73.30;;;;;;5075525;28;20188;-72
2022/08/05 10:16:05;;;;;;;2.58;2.38;;;25.00;73.40;;;;;;5082478;28;20192;-71
2022/08/05 10:18:38;;;;;;;2.60;2.40;;;25.00;73.10;;;;;;5105519;28;20199;-72
2022/08/05 10:21:06;;;;;;;2.80;2.60;;;25.00;73.30;;;;;;5096010;27;20226;-72
2022/08/05 10:23:35;;;;;;;2.92;2.35;;;25.00;73.10;;;;;;5125170;27;20187;-72
2022/08/05 10:26:08;;;;;;;2.33;2.17;;;25.10;73.10;;;;;;5114185;27;20194;-72
2022/08/05 10:28:35;;;;;;;2.33;2.22;;;25.00;72.80;;;;;;5108321;27;20203;-72
2022/08/05 10:31:01;;;;;;;2.90;2.50;;;25.00;72.90;;;;;;5099006;27;20211;-71
2022/08/05 10:33:30;;;;;;;2.63;2.42;;;25.00;72.90;;;;;;5116235;27;20186;-72
2022/08/05 10:35:59;;;;;;;3.83;2.65;;;25.00;72.80;;;;;;5098949;27;20187;-72
2022/08/05 10:38:27;;;;;;;2.28;2.17;;;25.00;73.10;;;;;;5110107;28;20240;-72
2022/08/05 10:41:05;;;;;;;2.65;2.45;;;25.00;73.10;;;;;;5105821;27;20192;-72
2022/08/05 10:43:52;;;;;;;3.33;2.42;;;25.00;73.10;;;;;;5099094;27;20202;-71
2022/08/05 10:46:22;;;;;;;2.85;2.53;;;25.00;73.10;;;;;;5109290;28;20195;-71
2022/08/05 10:49:06;;;;;;;2.53;2.33;;;25.00;72.90;;;;;;5111759;27;20200;-72
2022/08/05 10:51:46;;;;;;;2.95;2.60;;;25.00;72.80;;;;;;5070802;28;20177;-72
2022/08/05 10:54:13;;;;;;;2.70;2.50;;;25.00;72.90;;;;;;5058838;28;20191;-73
2022/08/05 10:56:57;;;;;;;2.25;2.05;;;25.10;72.80;;;;;;5118906;27;20212;-72
2022/08/05 10:59:29;;;;;;;3.15;2.70;;;25.00;72.60;;;;;;5099600;27;20207;-71
2022/08/05 11:02:10;;;;;;;2.88;2.60;;;25.10;72.80;;;;;;5133602;27;20617;-71
2022/08/05 11:04:54;;;;;;;2.70;2.50;;;25.00;72.70;;;;;;5133205;27;20182;-71
2022/08/05 11:07:20;;;;;;;2.80;2.50;;;25.00;72.60;;;;;;5102044;28;20211;-73
2022/08/05 11:09:51;;;;;;;2.45;2.10;;;25.10;72.80;;;;;;5110577;28;20207;-71
2022/08/05 11:12:23;;;;;;;2.63;2.42;;;25.10;72.50;;;;;;5118630;27;20233;-72
2022/08/05 11:15:14;;;;;;;2.65;2.45;;;25.10;72.60;;;;;;5098498;28;20191;-72
2022/08/05 11:17:42;;;;;;;2.88;2.50;;;25.10;72.50;;;;;;5107694;28;20695;-72
2022/08/05 11:20:44;;;;;;;2.55;2.35;;;25.10;72.40;;;;;;5107127;28;20638;-72
2022/08/05 11:23:42;;;;;;;3.58;2.60;;;25.00;72.30;;;;;;5130956;28;20265;-71
2022/08/05 11:26:20;;;;;;;2.67;2.47;;;25.10;72.40;;;;;;5078026;28;20248;-72
2022/08/05 11:28:52;;;;;;;2.60;2.40;;;25.10;72.40;;;;;;5095817;28;20571;-72
2022/08/05 11:31:18;;;;;;;2.50;2.30;;;25.10;72.40;;;;;;5106604;28;20270;-71
2022/08/05 11:33:47;;;;;;;2.78;2.47;;;25.10;72.20;;;;;;5115581;28;20183;-71
2022/08/05 11:36:17;;;;;;;2.60;2.40;;;25.10;72.40;;;;;;5097592;28;20183;-71
2022/08/05 11:38:43;;;;;;;2.40;2.28;;;25.10;72.40;;;;;;5133299;28;20180;-72
2022/08/05 11:41:27;;;;;;;2.47;2.28;;;25.10;72.40;;;;;;5115045;28;20216;-71
2022/08/05 11:44:11;;;;;;;2.60;2.40;;;25.10;72.40;;;;;;5127050;28;20712;-72
2022/08/05 11:46:48;;;;;;;2.70;2.50;;;25.10;72.40;;;;;;5114336;28;20180;-72
2022/08/05 11:49:17;;;;;;;2.45;2.35;;;25.10;72.40;;;;;;5104494;28;20238;-72
2022/08/05 11:51:46;;;;;;;2.50;2.30;;;25.10;72.40;;;;;;5111619;28;20172;-71
2022/08/05 11:54:20;;;;;;;2.40;2.20;;;25.10;72.40;;;;;;5112649;28;20251;-71
2022/08/05 11:56:48;;;;;;;2.67;2.47;;;25.10;72.40;;;;;;5093995;28;20230;-71
2022/08/05 11:59:18;;;;;;;3.05;2.28;;;25.10;72.40;;;;;;5077589;28;20271;-71
2022/08/05 12:02:05;;;;;;;2.28;2.17;;;25.10;72.40;;;;;;5119629;28;20607;-72
2022/08/05 12:04:43;;;;;;;2.80;2.50;;;25.10;72.40;;;;;;5115488;28;20160;-72
2022/08/05 12:07:13;;;;;;;2.40;2.20;;;25.20;72.50;;;;;;5114138;28;20222;-73
2022/08/05 12:09:48;;;;;;;2.95;2.70;;;25.10;72.40;;;;;;5132204;28;20195;-71
2022/08/05 12:12:26;;;;;;;2.58;2.38;;;25.10;72.80;;;;;;5131843;28;20172;-71
2022/08/05 12:14:52;;;;;;;2.60;2.50;;;25.10;72.40;;;;;;5094948;28;20203;-70
2022/08/05 12:17:19;;;;;;;2.42;2.20;;;25.10;72.50;;;;;;5117824;28;20223;-71
2022/08/05 12:19:54;;;;;;;3.25;2.40;;;25.10;72.40;;;;;;5123005;28;20171;-71
2022/08/05 12:22:26;;;;;;;2.40;2.20;;;25.10;72.40;;;;;;5097409;28;20274;-70
2022/08/05 12:24:54;;;;;;;4.78;2.50;;;25.10;72.40;;;;;;5133035;28;20173;-71
2022/08/05 12:27:25;;;;;;;2.47;2.28;;;25.10;72.60;;;;;;5114149;28;20248;-72
2022/08/05 12:30:10;;;;;;;2.60;2.40;;;25.10;72.50;;;;;;5131918;28;20196;-71
2022/08/05 12:32:46;;;;;;;2.70;2.50;;;25.10;72.40;;;;;;5132753;27;20576;-72
2022/08/05 12:35:14;;;;;;;2.20;2.10;;;25.10;72.40;;;;;;5100919;27;20183;-72
2022/08/05 12:37:41;;;;;;;2.25;2.13;;;25.10;72.50;;;;;;5135676;27;20199;-72
2022/08/05 12:40:11;;;;;;;2.58;2.40;;;25.10;72.40;;;;;;5136284;27;20175;-72
2022/08/05 12:42:38;;;;;;;2.55;2.45;;;25.10;72.40;;;;;;5117746;27;20210;-72
2022/08/05 12:45:07;;;;;;;2.72;2.53;;;25.10;72.40;;;;;;5117867;27;20184;-72
2022/08/05 12:47:33;;;;;;;2.30;2.20;;;25.10;72.40;;;;;;5121968;27;20229;-71
2022/08/05 12:50:00;;;;;;;2.30;2.20;;;25.10;72.60;;;;;;5118354;27;20195;-71
2022/08/05 12:52:26;;;;;;;2.42;2.22;;;25.10;72.40;;;;;;5117844;27;20206;-71
2022/08/05 12:54:52;;;;;;;2.35;2.15;;;25.10;72.40;;;;;;5117408;27;20172;-72
2022/08/05 12:57:18;;;;;;;2.85;2.63;;;25.10;72.40;;;;;;5099757;27;20199;-71
2022/08/05 12:59:53;;;;;;;2.55;2.40;;;25.10;72.40;;;;;;5117333;27;20266;-71
2022/08/05 13:02:25;;;;;;;2.67;2.47;;;25.10;72.40;;;;;;5100077;27;20190;-71
2022/08/05 13:04:53;;;;;;;2.55;2.35;;;25.10;73.20;;;;;;5118540;27;20180;-71
2022/08/05 13:07:25;;;;;;;2.45;2.25;;;25.10;72.40;;;;;;5116630;27;20215;-72